Airport View

Enter AWOS ICAO identifier for current METAR.

ex. KFNL

KEGE 251356Z 00000KT 10SM CLR 06/M02 A3025 RMK AO2 SLP208 T00611022 PNO $

25 Sep 2020 14:17

Frequency: 135.575

Phone: 970-524-7386

Other Area AWOS: K5SM - KASE - K20V - KCCU

TAF KEGE 251121Z 2512/2612 10003KT P6SM SKC FM251700 23007KT P6SM FEW250 FM251900 24015G27KT P6SM FEW250 FM260200 25012KT P6SM SKC FM260600 10008KT P6SM SKC